sensor_id;sensor_type;location;lat;lon;timestamp;pressure;altitude;pressure_sealevel;temperature
76541;BMP280;65385;55.772;37.658;2023-07-13T00:00:49;98825.19;;;13.86
76541;BMP280;65385;55.772;37.658;2023-07-13T00:01:50;98829.66;;;13.85
76541;BMP280;65385;55.772;37.658;2023-07-13T00:02:52;98830.88;;;13.88
76541;BMP280;65385;55.772;37.658;2023-07-13T00:03:56;98830.09;;;13.87
76541;BMP280;65385;55.772;37.658;2023-07-13T00:04:57;98818.84;;;13.87
76541;BMP280;65385;55.772;37.658;2023-07-13T00:05:59;98834.59;;;13.87
76541;BMP280;65385;55.772;37.658;2023-07-13T00:07:00;98833.50;;;13.88
76541;BMP280;65385;55.772;37.658;2023-07-13T00:08:01;98831.66;;;13.88
76541;BMP280;65385;55.772;37.658;2023-07-13T00:09:01;98822.72;;;13.89
76541;BMP280;65385;55.772;37.658;2023-07-13T00:10:03;98833.50;;;13.88
76541;BMP280;65385;55.772;37.658;2023-07-13T00:11:04;98839.25;;;13.90
76541;BMP280;65385;55.772;37.658;2023-07-13T00:12:23;98836.63;;;13.90
76541;BMP280;65385;55.772;37.658;2023-07-13T00:13:24;98833.50;;;13.88
76541;BMP280;65385;55.772;37.658;2023-07-13T00:14:26;98838.75;;;13.88
76541;BMP280;65385;55.772;37.658;2023-07-13T00:15:27;98835.06;;;13.89
76541;BMP280;65385;55.772;37.658;2023-07-13T00:16:30;98837.25;;;13.87
76541;BMP280;65385;55.772;37.658;2023-07-13T00:17:30;98836.13;;;13.88
76541;BMP280;65385;55.772;37.658;2023-07-13T00:18:31;98833.81;;;13.86
76541;BMP280;65385;55.772;37.658;2023-07-13T00:19:31;98835.72;;;13.86
76541;BMP280;65385;55.772;37.658;2023-07-13T00:20:32;98832.28;;;13.85
76541;BMP280;65385;55.772;37.658;2023-07-13T00:21:33;98834.94;;;13.85
76541;BMP280;65385;55.772;37.658;2023-07-13T00:22:34;98836.78;;;13.84
76541;BMP280;65385;55.772;37.658;2023-07-13T00:23:37;98832.59;;;13.83
76541;BMP280;65385;55.772;37.658;2023-07-13T00:24:38;98831.03;;;13.82
76541;BMP280;65385;55.772;37.658;2023-07-13T00:25:42;98830.53;;;13.80
76541;BMP280;65385;55.772;37.658;2023-07-13T00:26:42;98821.13;;;13.79
76541;BMP280;65385;55.772;37.658;2023-07-13T00:27:47;98824.81;;;13.78
76541;BMP280;65385;55.772;37.658;2023-07-13T00:28:51;98827.75;;;13.77
76541;BMP280;65385;55.772;37.658;2023-07-13T00:29:52;98823.88;;;13.74
76541;BMP280;65385;55.772;37.658;2023-07-13T00:30:53;98832.84;;;13.73
76541;BMP280;65385;55.772;37.658;2023-07-13T00:31:54;98830.22;;;13.73
76541;BMP280;65385;55.772;37.658;2023-07-13T00:32:55;98824.47;;;13.71
76541;BMP280;65385;55.772;37.658;2023-07-13T00:33:55;98822.34;;;13.73
76541;BMP280;65385;55.772;37.658;2023-07-13T00:34:56;98826.03;;;13.72
76541;BMP280;65385;55.772;37.658;2023-07-13T00:35:58;98826.03;;;13.72
76541;BMP280;65385;55.772;37.658;2023-07-13T00:37:00;98821.09;;;13.71
76541;BMP280;65385;55.772;37.658;2023-07-13T00:38:00;98830.03;;;13.70
76541;BMP280;65385;55.772;37.658;2023-07-13T00:39:01;98823.22;;;13.69
76541;BMP280;65385;55.772;37.658;2023-07-13T00:40:06;98825.84;;;13.69
76541;BMP280;65385;55.772;37.658;2023-07-13T00:41:07;98827.41;;;13.70
76541;BMP280;65385;55.772;37.658;2023-07-13T00:42:08;98829.56;;;13.68
76541;BMP280;65385;55.772;37.658;2023-07-13T00:43:14;98830.34;;;13.68
76541;BMP280;65385;55.772;37.658;2023-07-13T00:44:19;98832.50;;;13.66
76541;BMP280;65385;55.772;37.658;2023-07-13T00:46:27;98831.44;;;13.67
76541;BMP280;65385;55.772;37.658;2023-07-13T00:47:28;98832.50;;;13.66
76541;BMP280;65385;55.772;37.658;2023-07-13T00:48:32;98831.25;;;13.64
76541;BMP280;65385;55.772;37.658;2023-07-13T00:49:35;98830.75;;;13.62
76541;BMP280;65385;55.772;37.658;2023-07-13T00:50:36;98829.69;;;13.63
76541;BMP280;65385;55.772;37.658;2023-07-13T00:52:49;98835.28;;;13.61
76541;BMP280;65385;55.772;37.658;2023-07-13T00:53:53;98828.44;;;13.60
76541;BMP280;65385;55.772;37.658;2023-07-13T00:54:54;98831.84;;;13.61
76541;BMP280;65385;55.772;37.658;2023-07-13T00:55:56;98827.66;;;13.60
76541;BMP280;65385;55.772;37.658;2023-07-13T00:57:12;98828.44;;;13.60
76541;BMP280;65385;55.772;37.658;2023-07-13T00:58:15;98831.66;;;13.57
76541;BMP280;65385;55.772;37.658;2023-07-13T00:59:17;98826.13;;;13.59
76541;BMP280;65385;55.772;37.658;2023-07-13T01:00:20;98824.41;;;13.54
76541;BMP280;65385;55.772;37.658;2023-07-13T01:01:22;98822.06;;;13.53
76541;BMP280;65385;55.772;37.658;2023-07-13T01:02:23;98828.09;;;13.53
76541;BMP280;65385;55.772;37.658;2023-07-13T01:03:24;98819.16;;;13.54
76541;BMP280;65385;55.772;37.658;2023-07-13T01:04:25;98820.72;;;13.55
76541;BMP280;65385;55.772;37.658;2023-07-13T01:05:26;98820.72;;;13.55
76541;BMP280;65385;55.772;37.658;2023-07-13T01:06:28;98819.16;;;13.54
76541;BMP280;65385;55.772;37.658;2023-07-13T01:07:28;98819.16;;;13.54
76541;BMP280;65385;55.772;37.658;2023-07-13T01:08:32;98816.53;;;13.54
76541;BMP280;65385;55.772;37.658;2023-07-13T01:09:34;98815.75;;;13.54
76541;BMP280;65385;55.772;37.658;2023-07-13T01:10:35;98819.94;;;13.55
76541;BMP280;65385;55.772;37.658;2023-07-13T01:11:40;98818.38;;;13.54
76541;BMP280;65385;55.772;37.658;2023-07-13T01:12:42;98822.84;;;13.53
76541;BMP280;65385;55.772;37.658;2023-07-13T01:13:42;98817.59;;;13.53
76541;BMP280;65385;55.772;37.658;2023-07-13T01:14:43;98816.03;;;13.52
76541;BMP280;65385;55.772;37.658;2023-07-13T01:15:46;98819.72;;;13.51
76541;BMP280;65385;55.772;37.658;2023-07-13T01:16:49;98816.03;;;13.52
76541;BMP280;65385;55.772;37.658;2023-07-13T01:17:50;98820.50;;;13.52
76541;BMP280;65385;55.772;37.658;2023-07-13T01:18:51;98820.50;;;13.52
76541;BMP280;65385;55.772;37.658;2023-07-13T01:19:51;98820.50;;;13.52
76541;BMP280;65385;55.772;37.658;2023-07-13T01:21:56;98815.09;;;13.48
76541;BMP280;65385;55.772;37.658;2023-07-13T01:22:57;98816.16;;;13.47
76541;BMP280;65385;55.772;37.658;2023-07-13T01:23:58;98824.06;;;13.47
76541;BMP280;65385;55.772;37.658;2023-07-13T01:24:58;98817.72;;;13.48
76541;BMP280;65385;55.772;37.658;2023-07-13T01:25:59;98813.53;;;13.47
76541;BMP280;65385;55.772;37.658;2023-07-13T01:27:00;98815.09;;;13.48
76541;BMP280;65385;55.772;37.658;2023-07-13T01:28:02;98815.09;;;13.48
76541;BMP280;65385;55.772;37.658;2023-07-13T01:29:03;98817.72;;;13.48
76541;BMP280;65385;55.772;37.658;2023-07-13T01:30:04;98819.56;;;13.48
76541;BMP280;65385;55.772;37.658;2023-07-13T01:31:09;98816.16;;;13.47
76541;BMP280;65385;55.772;37.658;2023-07-13T01:32:14;98815.09;;;13.48
76541;BMP280;65385;55.772;37.658;2023-07-13T01:33:16;98810.13;;;13.47
76541;BMP280;65385;55.772;37.658;2023-07-13T01:34:17;98810.41;;;13.45
76541;BMP280;65385;55.772;37.658;2023-07-13T01:35:18;98810.41;;;13.45
76541;BMP280;65385;55.772;37.658;2023-07-13T01:36:18;98810.41;;;13.45
76541;BMP280;65385;55.772;37.658;2023-07-13T01:37:22;98807.31;;;13.43
76541;BMP280;65385;55.772;37.658;2023-07-13T01:38:25;98807.31;;;13.43
76541;BMP280;65385;55.772;37.658;2023-07-13T01:39:26;98805.44;;;13.44
76541;BMP280;65385;55.772;37.658;2023-07-13T01:40:27;98802.81;;;13.44
76541;BMP280;65385;55.772;37.658;2023-07-13T01:41:28;98805.44;;;13.44
76541;BMP280;65385;55.772;37.658;2023-07-13T01:42:29;98799.91;;;13.45
76541;BMP280;65385;55.772;37.658;2023-07-13T01:43:30;98803.59;;;13.44
76541;BMP280;65385;55.772;37.658;2023-07-13T01:44:30;98801.75;;;13.45
76541;BMP280;65385;55.772;37.658;2023-07-13T01:45:31;98803.59;;;13.44
76541;BMP280;65385;55.772;37.658;2023-07-13T01:46:32;98800.19;;;13.44
76541;BMP280;65385;55.772;37.658;2023-07-13T01:47:33;98803.59;;;13.44
76541;BMP280;65385;55.772;37.658;2023-07-13T01:48:34;98808.88;;;13.44
76541;BMP280;65385;55.772;37.658;2023-07-13T01:49:35;98807.78;;;13.45
76541;BMP280;65385;55.772;37.658;2023-07-13T01:50:37;98795.25;;;13.42
76541;BMP280;65385;55.772;37.658;2023-07-13T01:51:37;98805.66;;;13.47
76541;BMP280;65385;55.772;37.658;2023-07-13T01:52:38;98795.44;;;13.46
76541;BMP280;65385;55.772;37.658;2023-07-13T01:53:39;98798.56;;;13.48
76541;BMP280;65385;55.772;37.658;2023-07-13T01:54:39;98797.00;;;13.47
76541;BMP280;65385;55.772;37.658;2023-07-13T01:55:41;98803.03;;;13.47
76541;BMP280;65385;55.772;37.658;2023-07-13T01:56:42;98799.63;;;13.47
76541;BMP280;65385;55.772;37.658;2023-07-13T01:57:43;98809.06;;;13.48
76541;BMP280;65385;55.772;37.658;2023-07-13T01:58:45;98795.63;;;13.49
76541;BMP280;65385;55.772;37.658;2023-07-13T01:59:45;98794.88;;;13.49
76541;BMP280;65385;55.772;37.658;2023-07-13T02:00:48;98800.88;;;13.49
76541;BMP280;65385;55.772;37.658;2023-07-13T02:01:50;98798.25;;;13.49
76541;BMP280;65385;55.772;37.658;2023-07-13T02:02:50;98793.00;;;13.49
76541;BMP280;65385;55.772;37.658;2023-07-13T02:03:52;98794.53;;;13.50
76541;BMP280;65385;55.772;37.658;2023-07-13T02:04:54;98792.66;;;13.51
76541;BMP280;65385;55.772;37.658;2023-07-13T02:05:55;98796.06;;;13.51
76541;BMP280;65385;55.772;37.658;2023-07-13T02:06:56;98798.69;;;13.51
76541;BMP280;65385;55.772;37.658;2023-07-13T02:07:56;98788.19;;;13.51
76541;BMP280;65385;55.772;37.658;2023-07-13T02:08:57;98789.75;;;13.52
76541;BMP280;65385;55.772;37.658;2023-07-13T02:09:58;98792.38;;;13.52
76541;BMP280;65385;55.772;37.658;2023-07-13T02:10:59;98785.28;;;13.53
76541;BMP280;65385;55.772;37.658;2023-07-13T02:12:00;98788.69;;;13.53
76541;BMP280;65385;55.772;37.658;2023-07-13T02:13:06;98792.09;;;13.54
76541;BMP280;65385;55.772;37.658;2023-07-13T02:14:06;98782.38;;;13.54
76541;BMP280;65385;55.772;37.658;2023-07-13T02:15:08;98788.41;;;13.55
76541;BMP280;65385;55.772;37.658;2023-07-13T02:16:09;98794.44;;;13.55
76541;BMP280;65385;55.772;37.658;2023-07-13T02:17:10;98792.56;;;13.56
76541;BMP280;65385;55.772;37.658;2023-07-13T02:18:11;98781.72;;;13.57
76541;BMP280;65385;55.772;37.658;2023-07-13T02:19:32;98790.72;;;13.56
76541;BMP280;65385;55.772;37.658;2023-07-13T02:20:33;98786.97;;;13.57
76541;BMP280;65385;55.772;37.658;2023-07-13T02:21:34;98786.97;;;13.57
76541;BMP280;65385;55.772;37.658;2023-07-13T02:22:34;98788.53;;;13.58
76541;BMP280;65385;55.772;37.658;2023-07-13T02:23:35;98782.22;;;13.59
76541;BMP280;65385;55.772;37.658;2023-07-13T02:24:36;98781.94;;;13.61
76541;BMP280;65385;55.772;37.658;2023-07-13T02:25:38;98784.25;;;13.62
76541;BMP280;65385;55.772;37.658;2023-07-13T02:26:39;98784.25;;;13.62
76541;BMP280;65385;55.772;37.658;2023-07-13T02:27:39;98778.69;;;13.64
76541;BMP280;65385;55.772;37.658;2023-07-13T02:28:40;98779.44;;;13.64
76541;BMP280;65385;55.772;37.658;2023-07-13T02:29:40;98779.94;;;13.66
76541;BMP280;65385;55.772;37.658;2023-07-13T02:30:41;98780.22;;;13.65
76541;BMP280;65385;55.772;37.658;2023-07-13T02:31:41;98778.38;;;13.65
76541;BMP280;65385;55.772;37.658;2023-07-13T02:32:42;98776.25;;;13.67
76541;BMP280;65385;55.772;37.658;2023-07-13T02:33:44;98777.78;;;13.68
76541;BMP280;65385;55.772;37.658;2023-07-13T02:34:45;98771.16;;;13.71
76541;BMP280;65385;55.772;37.658;2023-07-13T02:35:46;98776.88;;;13.73
76541;BMP280;65385;55.772;37.658;2023-07-13T02:36:46;98783.38;;;13.75
76541;BMP280;65385;55.772;37.658;2023-07-13T02:37:48;98778.09;;;13.75
76541;BMP280;65385;55.772;37.658;2023-07-13T02:38:49;98778.91;;;13.76
76541;BMP280;65385;55.772;37.658;2023-07-13T02:39:50;98779.66;;;13.76
76541;BMP280;65385;55.772;37.658;2023-07-13T02:40:51;98778.59;;;13.77
76541;BMP280;65385;55.772;37.658;2023-07-13T02:41:54;98777.50;;;13.78
76541;BMP280;65385;55.772;37.658;2023-07-13T02:42:54;98781.38;;;13.81
76541;BMP280;65385;55.772;37.658;2023-07-13T02:43:55;98787.41;;;13.81
76541;BMP280;65385;55.772;37.658;2023-07-13T02:45:03;98781.56;;;13.84
76541;BMP280;65385;55.772;37.658;2023-07-13T02:46:04;98781.56;;;13.84
76541;BMP280;65385;55.772;37.658;2023-07-13T02:47:09;98780.00;;;13.83
76541;BMP280;65385;55.772;37.658;2023-07-13T02:48:09;98780.00;;;13.83
76541;BMP280;65385;55.772;37.658;2023-07-13T02:49:10;98776.31;;;13.84
76541;BMP280;65385;55.772;37.658;2023-07-13T02:50:11;98788.38;;;13.86
76541;BMP280;65385;55.772;37.658;2023-07-13T02:51:11;98780.94;;;13.88
76541;BMP280;65385;55.772;37.658;2023-07-13T02:52:12;98780.94;;;13.88
76541;BMP280;65385;55.772;37.658;2023-07-13T02:53:13;98781.41;;;13.90
76541;BMP280;65385;55.772;37.658;2023-07-13T02:54:14;98788.25;;;13.91
76541;BMP280;65385;55.772;37.658;2023-07-13T02:55:15;98781.13;;;13.91
76541;BMP280;65385;55.772;37.658;2023-07-13T02:56:17;98780.06;;;13.92
76541;BMP280;65385;55.772;37.658;2023-07-13T02:57:18;98784.97;;;13.94
76541;BMP280;65385;55.772;37.658;2023-07-13T02:58:19;98776.66;;;13.92
76541;BMP280;65385;55.772;37.658;2023-07-13T02:59:20;98774.44;;;13.94
76541;BMP280;65385;55.772;37.658;2023-07-13T03:00:21;98767.06;;;13.96
76541;BMP280;65385;55.772;37.658;2023-07-13T03:01:22;98776.22;;;13.98
76541;BMP280;65385;55.772;37.658;2023-07-13T03:02:23;98771.72;;;13.99
76541;BMP280;65385;55.772;37.658;2023-07-13T03:03:24;98771.41;;;14.00
76541;BMP280;65385;55.772;37.658;2023-07-13T03:04:24;98775.56;;;14.01
76541;BMP280;65385;55.772;37.658;2023-07-13T03:05:25;98771.09;;;14.02
76541;BMP280;65385;55.772;37.658;2023-07-13T03:06:26;98770.00;;;14.03
76541;BMP280;65385;55.772;37.658;2023-07-13T03:07:30;98767.09;;;14.04
76541;BMP280;65385;55.772;37.658;2023-07-13T03:08:31;98769.41;;;14.06
76541;BMP280;65385;55.772;37.658;2023-07-13T03:09:33;98769.41;;;14.06
76541;BMP280;65385;55.772;37.658;2023-07-13T03:10:35;98762.28;;;14.06
76541;BMP280;65385;55.772;37.658;2023-07-13T03:11:36;98768.34;;;14.07
76541;BMP280;65385;55.772;37.658;2023-07-13T03:12:46;98761.22;;;14.07
76541;BMP280;65385;55.772;37.658;2023-07-13T03:13:55;98766.16;;;14.09
76541;BMP280;65385;55.772;37.658;2023-07-13T03:14:57;98764.31;;;14.09
76541;BMP280;65385;55.772;37.658;2023-07-13T03:15:57;98769.56;;;14.09
76541;BMP280;65385;55.772;37.658;2023-07-13T03:16:58;98769.56;;;14.09
76541;BMP280;65385;55.772;37.658;2023-07-13T03:18:02;98765.88;;;14.10
76541;BMP280;65385;55.772;37.658;2023-07-13T03:19:03;98764.75;;;14.11
76541;BMP280;65385;55.772;37.658;2023-07-13T03:20:04;98765.53;;;14.12
76541;BMP280;65385;55.772;37.658;2023-07-13T03:21:05;98771.13;;;14.10
76541;BMP280;65385;55.772;37.658;2023-07-13T03:22:06;98765.25;;;14.13
76541;BMP280;65385;55.772;37.658;2023-07-13T03:23:08;98775.78;;;14.13
76541;BMP280;65385;55.772;37.658;2023-07-13T03:24:09;98763.41;;;14.14
76541;BMP280;65385;55.772;37.658;2023-07-13T03:25:09;98764.94;;;14.15
76541;BMP280;65385;55.772;37.658;2023-07-13T03:26:18;98784.56;;;14.17
76541;BMP280;65385;55.772;37.658;2023-07-13T03:27:19;98774.84;;;14.18
76541;BMP280;65385;55.772;37.658;2023-07-13T03:28:22;98773.75;;;14.19
76541;BMP280;65385;55.772;37.658;2023-07-13T03:29:22;98777.94;;;14.20
76541;BMP280;65385;55.772;37.658;2023-07-13T03:30:24;98779.50;;;14.21
76541;BMP280;65385;55.772;37.658;2023-07-13T03:31:27;98775.03;;;14.21
76541;BMP280;65385;55.772;37.658;2023-07-13T03:32:29;98776.88;;;14.21
76541;BMP280;65385;55.772;37.658;2023-07-13T03:33:30;98775.03;;;14.21
76541;BMP280;65385;55.772;37.658;2023-07-13T03:34:31;98775.81;;;14.22
76541;BMP280;65385;55.772;37.658;2023-07-13T03:35:31;98774.25;;;14.21
76541;BMP280;65385;55.772;37.658;2023-07-13T03:36:33;98776.09;;;14.20
76541;BMP280;65385;55.772;37.658;2023-07-13T03:37:37;98786.34;;;14.22
76541;BMP280;65385;55.772;37.658;2023-07-13T03:38:46;98784.78;;;14.21
76541;BMP280;65385;55.772;37.658;2023-07-13T03:39:47;98786.34;;;14.22
76541;BMP280;65385;55.772;37.658;2023-07-13T03:40:48;98778.44;;;14.22
76541;BMP280;65385;55.772;37.658;2023-07-13T03:41:49;98778.44;;;14.22
76541;BMP280;65385;55.772;37.658;2023-07-13T03:42:50;98775.81;;;14.22
76541;BMP280;65385;55.772;37.658;2023-07-13T03:43:52;98774.72;;;14.23
76541;BMP280;65385;55.772;37.658;2023-07-13T03:44:55;98777.78;;;14.25
76541;BMP280;65385;55.772;37.658;2023-07-13T03:45:57;98771.47;;;14.26
76541;BMP280;65385;55.772;37.658;2023-07-13T03:46:57;98765.41;;;14.25
76541;BMP280;65385;55.772;37.658;2023-07-13T03:47:58;98769.31;;;14.28
76541;BMP280;65385;55.772;37.658;2023-07-13T03:48:59;98767.88;;;14.30
76541;BMP280;65385;55.772;37.658;2023-07-13T03:50:00;98770.22;;;14.32
76541;BMP280;65385;55.772;37.658;2023-07-13T03:51:01;98769.44;;;14.31
76541;BMP280;65385;55.772;37.658;2023-07-13T03:52:02;98769.94;;;14.33
76541;BMP280;65385;55.772;37.658;2023-07-13T03:53:02;98779.84;;;14.36
76541;BMP280;65385;55.772;37.658;2023-07-13T03:54:03;98779.53;;;14.38
76541;BMP280;65385;55.772;37.658;2023-07-13T03:55:04;98776.59;;;14.40
76541;BMP280;65385;55.772;37.658;2023-07-13T03:56:07;98791.00;;;14.42
76541;BMP280;65385;55.772;37.658;2023-07-13T03:57:08;98784.66;;;14.43
76541;BMP280;65385;55.772;37.658;2023-07-13T03:58:36;98781.41;;;14.46
76541;BMP280;65385;55.772;37.658;2023-07-13T03:59:44;98771.94;;;14.45
76541;BMP280;65385;55.772;37.658;2023-07-13T04:00:45;98778.44;;;14.48
76541;BMP280;65385;55.772;37.658;2023-07-13T04:01:46;98780.78;;;14.49
76541;BMP280;65385;55.772;37.658;2023-07-13T04:02:47;98772.59;;;14.51
76541;BMP280;65385;55.772;37.658;2023-07-13T04:03:50;98785.44;;;14.52
76541;BMP280;65385;55.772;37.658;2023-07-13T04:04:51;98777.97;;;14.54
76541;BMP280;65385;55.772;37.658;2023-07-13T04:05:54;98774.00;;;14.57
76541;BMP280;65385;55.772;37.658;2023-07-13T04:06:55;98774.41;;;14.59
76541;BMP280;65385;55.772;37.658;2023-07-13T04:07:55;98778.31;;;14.61
76541;BMP280;65385;55.772;37.658;2023-07-13T04:08:59;98781.41;;;14.63
76541;BMP280;65385;55.772;37.658;2023-07-13T04:10:00;98772.09;;;14.66
76541;BMP280;65385;55.772;37.658;2023-07-13T04:11:02;98785.44;;;14.69
76541;BMP280;65385;55.772;37.658;2023-07-13T04:12:04;98778.00;;;14.71
76541;BMP280;65385;55.772;37.658;2023-07-13T04:13:05;98790.25;;;14.76
76541;BMP280;65385;55.772;37.658;2023-07-13T04:14:06;98783.44;;;14.75
76541;BMP280;65385;55.772;37.658;2023-07-13T04:15:08;98786.50;;;14.77
76541;BMP280;65385;55.772;37.658;2023-07-13T04:16:09;98780.66;;;14.80
76541;BMP280;65385;55.772;37.658;2023-07-13T04:17:10;98777.69;;;14.81
76541;BMP280;65385;55.772;37.658;2023-07-13T04:18:10;98779.69;;;14.84
76541;BMP280;65385;55.772;37.658;2023-07-13T04:19:13;98779.41;;;14.86
76541;BMP280;65385;55.772;37.658;2023-07-13T04:20:14;98777.97;;;14.88
76541;BMP280;65385;55.772;37.658;2023-07-13T04:21:15;98785.88;;;14.88
76541;BMP280;65385;55.772;37.658;2023-07-13T04:22:16;98784.00;;;14.89
76541;BMP280;65385;55.772;37.658;2023-07-13T04:23:17;98779.53;;;14.89
76541;BMP280;65385;55.772;37.658;2023-07-13T04:24:18;98781.09;;;14.90
76541;BMP280;65385;55.772;37.658;2023-07-13T04:25:20;98782.94;;;14.90
76541;BMP280;65385;55.772;37.658;2023-07-13T04:26:21;98787.91;;;14.92
76541;BMP280;65385;55.772;37.658;2023-07-13T04:27:22;98786.06;;;14.92
76541;BMP280;65385;55.772;37.658;2023-07-13T04:28:24;98784.97;;;14.93
76541;BMP280;65385;55.772;37.658;2023-07-13T04:29:25;98782.78;;;14.95
76541;BMP280;65385;55.772;37.658;2023-07-13T04:30:26;98781.41;;;14.98
76541;BMP280;65385;55.772;37.658;2023-07-13T04:31:26;98781.09;;;14.99
76541;BMP280;65385;55.772;37.658;2023-07-13T04:32:27;98783.41;;;15.01
76541;BMP280;65385;55.772;37.658;2023-07-13T04:33:27;98782.00;;;15.03
76541;BMP280;65385;55.772;37.658;2023-07-13T04:34:28;98779.06;;;15.05
76541;BMP280;65385;55.772;37.658;2023-07-13T04:35:29;98774.25;;;15.07
76541;BMP280;65385;55.772;37.658;2023-07-13T04:36:29;98781.84;;;15.08
76541;BMP280;65385;55.772;37.658;2023-07-13T04:37:30;98781.84;;;15.08
76541;BMP280;65385;55.772;37.658;2023-07-13T04:38:32;98786.78;;;15.10
76541;BMP280;65385;55.772;37.658;2023-07-13T04:39:33;98777.66;;;15.07
76541;BMP280;65385;55.772;37.658;2023-07-13T04:40:34;98777.66;;;15.07
76541;BMP280;65385;55.772;37.658;2023-07-13T04:41:34;98782.63;;;15.09
76541;BMP280;65385;55.772;37.658;2023-07-13T04:42:35;98783.72;;;15.08
76541;BMP280;65385;55.772;37.658;2023-07-13T04:43:35;98780.31;;;15.07
76541;BMP280;65385;55.772;37.658;2023-07-13T04:44:36;98779.81;;;15.05
76541;BMP280;65385;55.772;37.658;2023-07-13T04:45:37;98779.06;;;15.05
76541;BMP280;65385;55.772;37.658;2023-07-13T04:46:38;98775.94;;;15.03
76541;BMP280;65385;55.772;37.658;2023-07-13T04:47:38;98775.94;;;15.03
76541;BMP280;65385;55.772;37.658;2023-07-13T04:48:39;98774.09;;;15.03
76541;BMP280;65385;55.772;37.658;2023-07-13T04:49:39;98781.22;;;15.03
76541;BMP280;65385;55.772;37.658;2023-07-13T04:50:40;98771.47;;;15.03
76541;BMP280;65385;55.772;37.658;2023-07-13T04:51:41;98774.09;;;15.03
76541;BMP280;65385;55.772;37.658;2023-07-13T04:52:41;98776.44;;;15.05
76541;BMP280;65385;55.772;37.658;2023-07-13T04:53:43;98776.44;;;15.05
76541;BMP280;65385;55.772;37.658;2023-07-13T04:54:43;98770.84;;;15.06
76541;BMP280;65385;55.772;37.658;2023-07-13T04:55:44;98767.91;;;15.08
76541;BMP280;65385;55.772;37.658;2023-07-13T04:56:44;98767.59;;;15.09
76541;BMP280;65385;55.772;37.658;2023-07-13T04:57:46;98769.13;;;15.10
76541;BMP280;65385;55.772;37.658;2023-07-13T04:58:47;98779.94;;;15.17
76541;BMP280;65385;55.772;37.658;2023-07-13T04:59:47;98769.59;;;15.21
76541;BMP280;65385;55.772;37.658;2023-07-13T05:00:48;98779.94;;;15.26
76541;BMP280;65385;55.772;37.658;2023-07-13T05:01:49;98780.41;;;15.28
76541;BMP280;65385;55.772;37.658;2023-07-13T05:02:50;98780.88;;;15.30
76541;BMP280;65385;55.772;37.658;2023-07-13T05:03:50;98773.09;;;15.33
76541;BMP280;65385;55.772;37.658;2023-07-13T05:04:51;98777.75;;;15.36
76541;BMP280;65385;55.772;37.658;2023-07-13T05:06:04;98782.06;;;15.41
76541;BMP280;65385;55.772;37.658;2023-07-13T05:07:05;98786.25;;;15.42
76541;BMP280;65385;55.772;37.658;2023-07-13T05:08:06;98781.88;;;15.46
76541;BMP280;65385;55.772;37.658;2023-07-13T05:09:08;98785.44;;;15.50
76541;BMP280;65385;55.772;37.658;2023-07-13T05:10:09;98788.22;;;15.54
76541;BMP280;65385;55.772;37.658;2023-07-13T05:11:09;98794.13;;;15.59
76541;BMP280;65385;55.772;37.658;2023-07-13T05:12:10;98784.00;;;15.61
76541;BMP280;65385;55.772;37.658;2023-07-13T05:13:11;98785.25;;;15.64
76541;BMP280;65385;55.772;37.658;2023-07-13T05:14:11;98791.00;;;15.66
76541;BMP280;65385;55.772;37.658;2023-07-13T05:15:12;98801.66;;;15.69
76541;BMP280;65385;55.772;37.658;2023-07-13T05:16:12;98786.31;;;15.71
76541;BMP280;65385;55.772;37.658;2023-07-13T05:17:13;98791.41;;;15.76
76541;BMP280;65385;55.772;37.658;2023-07-13T05:18:13;98795.41;;;15.82
76541;BMP280;65385;55.772;37.658;2023-07-13T05:19:14;98787.78;;;15.89
76541;BMP280;65385;55.772;37.658;2023-07-13T05:20:16;98795.97;;;15.96
76541;BMP280;65385;55.772;37.658;2023-07-13T05:21:17;98796.25;;;16.04
76541;BMP280;65385;55.772;37.658;2023-07-13T05:22:17;98788.59;;;16.11
76541;BMP280;65385;55.772;37.658;2023-07-13T05:23:18;98794.59;;;16.20
76541;BMP280;65385;55.772;37.658;2023-07-13T05:24:18;98790.03;;;16.29
76541;BMP280;65385;55.772;37.658;2023-07-13T05:25:19;98787.19;;;16.34
76541;BMP280;65385;55.772;37.658;2023-07-13T05:26:20;98787.91;;;16.43
76541;BMP280;65385;55.772;37.658;2023-07-13T05:27:21;98793.88;;;16.52
76541;BMP280;65385;55.772;37.658;2023-07-13T05:28:22;98798.97;;;16.57
76541;BMP280;65385;55.772;37.658;2023-07-13T05:29:23;98782.41;;;16.69
76541;BMP280;65385;55.772;37.658;2023-07-13T05:30:23;98790.06;;;16.82
76541;BMP280;65385;55.772;37.658;2023-07-13T05:31:24;98788.53;;;16.93
76541;BMP280;65385;55.772;37.658;2023-07-13T05:32:25;98789.78;;;17.08
76541;BMP280;65385;55.772;37.658;2023-07-13T05:33:27;98777.19;;;17.26
76541;BMP280;65385;55.772;37.658;2023-07-13T05:34:28;98779.19;;;17.53
76541;BMP280;65385;55.772;37.658;2023-07-13T05:35:29;98782.72;;;17.81
76541;BMP280;65385;55.772;37.658;2023-07-13T05:36:30;98781.78;;;18.01
76541;BMP280;65385;55.772;37.658;2023-07-13T05:37:30;98782.97;;;18.16
76541;BMP280;65385;55.772;37.658;2023-07-13T05:38:31;98777.22;;;18.26
76541;BMP280;65385;55.772;37.658;2023-07-13T05:39:31;98768.84;;;18.24
76541;BMP280;65385;55.772;37.658;2023-07-13T05:40:32;98773.03;;;18.25
76541;BMP280;65385;55.772;37.658;2023-07-13T05:41:33;98770.31;;;18.21
76541;BMP280;65385;55.772;37.658;2023-07-13T05:42:33;98766.44;;;18.19
76541;BMP280;65385;55.772;37.658;2023-07-13T05:43:34;98780.00;;;18.17
76541;BMP280;65385;55.772;37.658;2023-07-13T05:44:35;98773.88;;;18.13
76541;BMP280;65385;55.772;37.658;2023-07-13T05:45:35;98777.28;;;18.14
76541;BMP280;65385;55.772;37.658;2023-07-13T05:46:36;98779.16;;;18.13
76541;BMP280;65385;55.772;37.658;2023-07-13T05:47:37;98779.56;;;18.15
76541;BMP280;65385;55.772;37.658;2023-07-13T05:48:37;98773.28;;;18.20
76541;BMP280;65385;55.772;37.658;2023-07-13T05:49:38;98770.97;;;18.18
76541;BMP280;65385;55.772;37.658;2023-07-13T05:50:39;98771.63;;;18.15
76541;BMP280;65385;55.772;37.658;2023-07-13T05:51:39;98769.19;;;18.10
76541;BMP280;65385;55.772;37.658;2023-07-13T05:52:40;98785.09;;;18.10
76541;BMP280;65385;55.772;37.658;2023-07-13T05:53:41;98778.16;;;18.06